Time;durP1;ratioP1;P1;durP2;ratioP2;P2;SDS_P1;SDS_P2;PMS_P1;PMS_P2;Temp;Humidity;BMP_temperature;BMP_pressure;BME280_temperature;BME280_humidity;BME280_pressure;Samples;Min_cycle;Max_cycle;Signal;HPM_P1;HPM_P2
2022/01/02 00:00:44;;;;;;;38.45;12.48;;;5.60;74.50;;;;;;5141210;27;20023;-71
2022/01/02 00:03:13;;;;;;;55.88;13.82;;;5.60;74.80;;;;;;5129886;27;20023;-71
2022/01/02 00:05:40;;;;;;;74.95;15.18;;;5.60;74.60;;;;;;5105125;27;20023;-71
2022/01/02 00:08:09;;;;;;;74.05;16.95;;;5.70;74.70;;;;;;5146026;27;20044;-71
2022/01/02 00:10:56;;;;;;;62.83;16.70;;;5.60;74.60;;;;;;5134100;27;20031;-71
2022/01/02 00:13:31;;;;;;;73.43;15.55;;;5.60;74.60;;;;;;5140929;27;20011;-71
2022/01/02 00:16:04;;;;;;;63.35;14.73;;;5.70;74.80;;;;;;5130634;27;20368;-71
2022/01/02 00:18:37;;;;;;;80.70;16.17;;;5.60;74.70;;;;;;5140224;27;20027;-71
2022/01/02 00:21:07;;;;;;;52.95;14.80;;;5.70;74.90;;;;;;5127616;27;20056;-71
2022/01/02 00:23:47;;;;;;;64.80;13.88;;;5.60;74.90;;;;;;5125356;27;20349;-72
2022/01/02 00:26:17;;;;;;;71.93;13.15;;;5.70;75.00;;;;;;5130636;27;20038;-71
2022/01/02 00:28:45;;;;;;;47.65;12.68;;;5.70;75.00;;;;;;5105423;28;20027;-71
2022/01/02 00:31:12;;;;;;;47.78;12.75;;;5.70;75.00;;;;;;5130588;27;20058;-71
2022/01/02 00:33:39;;;;;;;43.95;13.43;;;5.70;75.00;;;;;;5133236;27;20023;-71
2022/01/02 00:36:05;;;;;;;43.90;13.35;;;5.70;75.10;;;;;;5115205;27;20469;-71
2022/01/02 00:38:30;;;;;;;39.05;11.00;;;5.70;75.10;;;;;;5134049;27;20033;-71
2022/01/02 00:40:58;;;;;;;30.45;12.68;;;5.70;75.20;;;;;;5131934;27;20027;-71
2022/01/02 00:43:45;;;;;;;47.10;11.13;;;5.70;75.20;;;;;;5136990;27;20060;-71
2022/01/02 00:46:14;;;;;;;25.13;10.90;;;5.70;75.30;;;;;;5133288;27;20028;-71
2022/01/02 00:48:44;;;;;;;25.23;11.30;;;5.80;75.00;;;;;;5122964;27;20019;-71
2022/01/02 00:51:36;;;;;;;35.78;10.40;;;5.80;75.10;;;;;;5131939;27;20127;-71
2022/01/02 00:54:02;;;;;;;53.25;10.30;;;5.80;75.00;;;;;;5106643;27;20555;-71
2022/01/02 00:56:30;;;;;;;42.67;11.73;;;5.80;74.80;;;;;;5137728;27;20420;-71
2022/01/02 00:59:03;;;;;;;26.02;9.48;;;5.80;74.90;;;;;;5123056;27;20039;-71
2022/01/02 01:01:32;;;;;;;30.33;10.38;;;5.80;75.00;;;;;;5144745;27;20038;-71
2022/01/02 01:03:58;;;;;;;29.27;10.93;;;5.80;74.90;;;;;;5117141;27;20023;-71
2022/01/02 01:06:28;;;;;;;29.42;10.63;;;5.80;74.90;;;;;;5138912;27;20022;-70
2022/01/02 01:08:57;;;;;;;49.17;12.15;;;5.80;75.10;;;;;;5116550;27;20052;-71
2022/01/02 01:11:28;;;;;;;28.38;10.82;;;5.80;75.00;;;;;;5141896;27;20434;-71
2022/01/02 01:13:55;;;;;;;46.28;10.95;;;5.80;75.10;;;;;;5120860;27;20066;-71
2022/01/02 01:16:21;;;;;;;24.63;11.07;;;5.80;75.00;;;;;;5146955;27;20033;-71
2022/01/02 01:18:47;;;;;;;38.33;11.25;;;5.80;75.50;;;;;;5145445;27;20118;-71
2022/01/02 01:21:13;;;;;;;30.00;11.18;;;5.80;75.20;;;;;;5115362;27;20475;-71
2022/01/02 01:23:40;;;;;;;26.25;10.68;;;5.80;75.10;;;;;;5106469;28;20075;-71
2022/01/02 01:26:08;;;;;;;33.20;11.25;;;5.80;75.10;;;;;;5141006;27;20481;-71
2022/01/02 01:28:34;;;;;;;32.67;11.15;;;5.80;75.10;;;;;;5141085;27;20020;-71
2022/01/02 01:30:59;;;;;;;31.33;10.48;;;5.80;75.10;;;;;;5130922;27;20054;-71
2022/01/02 01:33:26;;;;;;;46.47;10.95;;;5.80;75.70;;;;;;5137741;27;20092;-71
2022/01/02 01:35:52;;;;;;;33.60;11.05;;;5.80;75.10;;;;;;5124608;27;20030;-71
2022/01/02 01:38:18;;;;;;;27.13;11.00;;;5.80;75.10;;;;;;5108346;28;20067;-71
2022/01/02 01:41:03;;;;;;;30.92;10.43;;;5.80;75.10;;;;;;5120433;27;20118;-71
2022/01/02 01:43:37;;;;;;;32.83;10.98;;;5.80;75.30;;;;;;5128886;27;20018;-71
2022/01/02 01:46:05;;;;;;;31.05;11.35;;;5.90;75.10;;;;;;5128868;27;20028;-71
2022/01/02 01:48:30;;;;;;;25.50;11.10;;;5.90;75.10;;;;;;5117671;28;20023;-71
2022/01/02 01:50:56;;;;;;;32.05;11.30;;;5.80;75.10;;;;;;5115289;27;20027;-71
2022/01/02 01:53:22;;;;;;;26.35;11.57;;;5.90;75.10;;;;;;5109106;27;20023;-71
2022/01/02 01:55:49;;;;;;;21.42;10.70;;;5.90;75.10;;;;;;5111740;28;20088;-71
2022/01/02 01:58:15;;;;;;;38.65;10.40;;;5.80;75.10;;;;;;5115900;27;20027;-71
2022/01/02 02:00:41;;;;;;;19.20;7.97;;;5.80;75.10;;;;;;5142027;27;20103;-71
2022/01/02 02:03:07;;;;;;;33.63;8.40;;;5.90;75.00;;;;;;5144064;27;20031;-71
2022/01/02 02:05:33;;;;;;;17.30;8.05;;;5.90;74.80;;;;;;5125877;27;20023;-71
2022/01/02 02:07:59;;;;;;;27.02;9.20;;;5.90;74.80;;;;;;5135632;27;20067;-71
2022/01/02 02:10:28;;;;;;;24.92;9.45;;;5.80;74.70;;;;;;5117086;27;20475;-71
2022/01/02 02:12:56;;;;;;;24.25;9.18;;;5.80;74.80;;;;;;5115797;27;20049;-71
2022/01/02 02:15:23;;;;;;;26.60;9.20;;;5.90;74.90;;;;;;5114135;27;20023;-71
2022/01/02 02:17:51;;;;;;;20.83;8.82;;;5.80;74.90;;;;;;5139360;27;20027;-71
2022/01/02 02:20:29;;;;;;;19.42;8.88;;;5.80;74.80;;;;;;5138803;27;20027;-71
2022/01/02 02:22:56;;;;;;;22.33;8.57;;;5.80;74.90;;;;;;5122510;27;20038;-71
2022/01/02 02:25:24;;;;;;;22.00;9.40;;;5.80;74.80;;;;;;5137854;27;20027;-71
2022/01/02 02:27:52;;;;;;;44.67;9.40;;;5.80;74.90;;;;;;5139649;27;20027;-71
2022/01/02 02:30:19;;;;;;;26.92;9.57;;;5.80;74.90;;;;;;5141720;27;20552;-71
2022/01/02 02:32:45;;;;;;;29.33;9.52;;;5.80;75.10;;;;;;5140916;27;20027;-71
2022/01/02 02:35:10;;;;;;;36.25;9.13;;;5.80;75.10;;;;;;5118211;27;20032;-71
2022/01/02 02:37:44;;;;;;;24.80;9.32;;;5.80;75.10;;;;;;5138183;27;20027;-71
2022/01/02 02:40:15;;;;;;;20.05;7.00;;;5.80;75.20;;;;;;5142171;27;20038;-71
2022/01/02 02:51:08;;;;;;;53.25;8.70;;;6.00;75.00;;;;;;5130333;27;20115;-71
2022/01/02 02:53:37;;;;;;;80.95;8.70;;;5.80;74.70;;;;;;5118190;27;20487;-71
2022/01/02 02:56:15;;;;;;;38.88;7.45;;;5.80;74.70;;;;;;5128923;27;20125;-71
2022/01/02 02:58:43;;;;;;;69.82;8.57;;;5.80;74.70;;;;;;5144230;27;20069;-71
2022/01/02 03:01:11;;;;;;;56.15;7.55;;;5.80;74.70;;;;;;5128466;27;20030;-71
2022/01/02 03:03:37;;;;;;;52.53;8.45;;;5.80;74.70;;;;;;5134965;27;20402;-71
2022/01/02 03:06:03;;;;;;;70.88;8.60;;;5.70;74.60;;;;;;5135398;27;20027;-71
2022/01/02 03:08:30;;;;;;;85.35;8.13;;;5.70;74.60;;;;;;5145400;27;20027;-71
2022/01/02 03:10:55;;;;;;;100.82;8.18;;;5.70;74.60;;;;;;5106177;27;20023;-71
2022/01/02 03:13:21;;;;;;;64.88;8.02;;;5.70;74.50;;;;;;5122463;27;20031;-71
2022/01/02 03:15:47;;;;;;;53.83;8.05;;;5.70;74.50;;;;;;5143509;27;20475;-71
2022/01/02 03:18:13;;;;;;;137.93;8.73;;;5.60;74.40;;;;;;5141194;27;20058;-71
2022/01/02 03:20:39;;;;;;;129.35;7.85;;;5.60;74.50;;;;;;5145265;27;20037;-71
2022/01/02 03:23:05;;;;;;;97.25;7.75;;;5.60;74.50;;;;;;5142764;27;20132;-71
2022/01/02 03:25:30;;;;;;;87.57;8.18;;;5.50;74.50;;;;;;5123669;27;20024;-71
2022/01/02 03:27:56;;;;;;;114.00;8.00;;;5.50;74.60;;;;;;5137629;27;20020;-71
2022/01/02 03:30:21;;;;;;;103.75;7.50;;;5.50;74.70;;;;;;5129627;27;20089;-71
2022/01/02 03:32:47;;;;;;;52.50;7.22;;;5.50;74.60;;;;;;5124483;27;20361;-71
2022/01/02 03:35:13;;;;;;;135.50;7.65;;;5.50;74.60;;;;;;5134682;27;20087;-71
2022/01/02 03:37:38;;;;;;;72.85;6.65;;;5.60;74.60;;;;;;5135695;27;20527;-71
2022/01/02 03:40:07;;;;;;;55.67;6.85;;;5.40;74.50;;;;;;5132498;27;20080;-71
2022/01/02 03:42:34;;;;;;;42.03;6.60;;;5.40;74.50;;;;;;5129309;27;20023;-71
2022/01/02 03:45:01;;;;;;;63.72;6.68;;;5.40;74.60;;;;;;5127980;27;20392;-71
2022/01/02 03:47:27;;;;;;;72.18;7.30;;;5.30;74.70;;;;;;5126151;27;20024;-71
2022/01/02 03:49:52;;;;;;;97.15;7.55;;;5.30;74.70;;;;;;5131705;27;20045;-71
2022/01/02 03:52:19;;;;;;;55.70;6.65;;;5.30;74.80;;;;;;5142381;27;20027;-70
2022/01/02 03:54:44;;;;;;;82.60;7.00;;;5.30;74.70;;;;;;5132493;27;20027;-72
2022/01/02 03:57:10;;;;;;;72.28;7.13;;;5.30;74.50;;;;;;5139375;27;20360;-71
2022/01/02 03:59:36;;;;;;;48.38;6.85;;;5.30;74.50;;;;;;5134929;27;20042;-71
2022/01/02 04:02:01;;;;;;;45.05;6.43;;;5.30;74.50;;;;;;5148687;27;20062;-71
2022/01/02 04:04:28;;;;;;;57.67;6.18;;;5.20;74.50;;;;;;5138011;27;20019;-71
2022/01/02 04:06:54;;;;;;;17.05;6.22;;;5.20;74.50;;;;;;5134317;27;20035;-71
2022/01/02 04:09:20;;;;;;;47.20;6.18;;;5.20;74.60;;;;;;5120689;27;20023;-71
2022/01/02 04:11:46;;;;;;;44.60;5.65;;;5.20;74.50;;;;;;5141837;27;20348;-71
2022/01/02 04:14:11;;;;;;;24.80;5.75;;;5.20;74.40;;;;;;5126470;27;20071;-71
2022/01/02 04:16:37;;;;;;;14.23;5.63;;;5.20;74.50;;;;;;5139180;27;20098;-71
2022/01/02 04:19:03;;;;;;;54.88;8.52;;;5.10;74.50;;;;;;5122841;27;20030;-71
2022/01/02 04:21:28;;;;;;;78.18;6.57;;;5.10;74.60;;;;;;5136864;27;20023;-71
2022/01/02 04:23:54;;;;;;;64.22;6.68;;;5.10;74.50;;;;;;5130689;27;20515;-71
2022/01/02 04:26:20;;;;;;;53.33;6.20;;;5.10;74.40;;;;;;5134305;27;20023;-71
2022/01/02 04:28:45;;;;;;;31.25;6.03;;;5.10;74.40;;;;;;5135880;27;20418;-71
2022/01/02 04:31:11;;;;;;;57.05;6.32;;;5.10;74.50;;;;;;5110772;27;20047;-71
2022/01/02 04:33:38;;;;;;;61.50;6.13;;;5.10;74.60;;;;;;5132517;27;20026;-70
2022/01/02 04:36:04;;;;;;;65.53;7.13;;;5.10;74.60;;;;;;5134137;27;20038;-71
2022/01/02 04:38:30;;;;;;;72.30;6.32;;;5.10;74.70;;;;;;5113317;27;20039;-71
2022/01/02 04:40:56;;;;;;;56.50;6.13;;;5.00;74.60;;;;;;5113795;27;20115;-71
2022/01/02 04:43:22;;;;;;;44.10;6.13;;;5.00;74.60;;;;;;5117031;27;20035;-71
2022/01/02 04:45:48;;;;;;;18.20;5.97;;;5.00;74.60;;;;;;5133341;27;20023;-72
2022/01/02 04:48:14;;;;;;;36.20;5.75;;;5.00;74.60;;;;;;5134848;27;20024;-71
2022/01/02 04:50:40;;;;;;;18.80;5.35;;;5.00;74.50;;;;;;5141651;27;20023;-71
2022/01/02 04:53:06;;;;;;;44.70;5.93;;;5.00;74.60;;;;;;5113143;27;20544;-71
2022/01/02 04:55:31;;;;;;;25.00;5.57;;;5.00;74.70;;;;;;5136695;27;20042;-71
2022/01/02 04:57:57;;;;;;;23.45;5.50;;;5.00;74.60;;;;;;5133659;27;20360;-71
2022/01/02 05:00:23;;;;;;;19.67;5.53;;;5.00;74.60;;;;;;5132193;27;20046;-71
2022/01/02 05:02:52;;;;;;;21.45;5.03;;;4.90;74.50;;;;;;5133140;27;20027;-71
2022/01/02 05:05:18;;;;;;;42.05;5.70;;;4.90;74.50;;;;;;5116031;27;20490;-71
2022/01/02 05:07:44;;;;;;;19.13;5.40;;;4.90;74.50;;;;;;5107129;28;20114;-71
2022/01/02 05:10:10;;;;;;;22.75;5.45;;;4.90;74.50;;;;;;5123867;27;20027;-71
2022/01/02 05:12:36;;;;;;;33.13;5.88;;;4.90;74.50;;;;;;5133617;27;20031;-71
2022/01/02 05:15:03;;;;;;;35.35;5.80;;;5.00;74.50;;;;;;5126847;27;20534;-71
2022/01/02 05:17:29;;;;;;;16.90;5.25;;;4.90;74.50;;;;;;5123245;27;20088;-71
2022/01/02 05:19:55;;;;;;;18.40;5.07;;;4.90;74.40;;;;;;5127113;27;20034;-71
2022/01/02 05:22:21;;;;;;;16.05;5.28;;;4.90;74.40;;;;;;5104625;27;20023;-71
2022/01/02 05:24:47;;;;;;;20.23;6.43;;;4.80;74.40;;;;;;5140399;27;20078;-71
2022/01/02 05:27:13;;;;;;;10.38;5.13;;;4.80;74.40;;;;;;5116013;28;20023;-71
2022/01/02 05:29:38;;;;;;;6.72;4.97;;;5.10;74.70;;;;;;5126737;27;20503;-71
2022/01/02 05:32:04;;;;;;;16.00;4.88;;;4.80;74.50;;;;;;5131608;27;20576;-71
2022/01/02 05:34:30;;;;;;;8.18;5.07;;;4.80;74.50;;;;;;5123065;27;20063;-71
2022/01/02 05:36:55;;;;;;;8.55;5.68;;;4.80;74.40;;;;;;5108853;28;20020;-71
2022/01/02 05:39:21;;;;;;;7.20;5.22;;;5.10;74.70;;;;;;5141618;27;20030;-71
2022/01/02 05:41:49;;;;;;;7.68;5.22;;;4.80;74.70;;;;;;5135059;27;20062;-72
2022/01/02 05:44:15;;;;;;;7.35;5.03;;;4.80;74.30;;;;;;5142233;27;20027;-71
2022/01/02 05:46:42;;;;;;;10.07;5.60;;;4.70;74.30;;;;;;5125955;27;20489;-71
2022/01/02 05:49:08;;;;;;;22.25;6.47;;;4.80;74.40;;;;;;5143094;27;20053;-71
2022/01/02 05:51:34;;;;;;;16.88;6.18;;;4.70;74.30;;;;;;5140317;27;20075;-71
2022/01/02 05:54:00;;;;;;;14.80;5.75;;;4.70;74.30;;;;;;5153733;27;20478;-71
2022/01/02 05:56:26;;;;;;;12.02;5.40;;;4.70;74.30;;;;;;5149066;27;20034;-71
2022/01/02 05:58:51;;;;;;;6.93;5.00;;;4.70;74.30;;;;;;5129343;27;20043;-71
2022/01/02 06:01:17;;;;;;;12.35;6.10;;;4.70;74.40;;;;;;5118380;27;20015;-71
2022/01/02 06:03:42;;;;;;;7.47;5.53;;;4.70;74.50;;;;;;5131899;27;20035;-71
2022/01/02 06:06:08;;;;;;;20.77;5.80;;;4.70;74.50;;;;;;5135725;27;20037;-71
2022/01/02 06:08:34;;;;;;;14.73;6.13;;;4.70;74.50;;;;;;5125530;27;20052;-71
2022/01/02 06:11:00;;;;;;;10.85;6.95;;;4.60;74.30;;;;;;5125023;27;20050;-71
2022/01/02 06:13:25;;;;;;;19.25;8.57;;;4.60;74.20;;;;;;5148693;27;20020;-71
2022/01/02 06:15:51;;;;;;;16.98;8.82;;;4.60;74.40;;;;;;5136463;27;20080;-71
2022/01/02 06:18:16;;;;;;;14.75;7.13;;;4.60;74.40;;;;;;5132945;27;20067;-71
2022/01/02 06:20:42;;;;;;;14.88;6.65;;;4.60;74.40;;;;;;5141685;27;20038;-71
2022/01/02 06:23:08;;;;;;;25.05;6.15;;;4.60;74.40;;;;;;5130543;27;20106;-71
2022/01/02 06:25:33;;;;;;;15.07;6.22;;;4.50;74.40;;;;;;5127012;27;20531;-71
2022/01/02 06:27:59;;;;;;;12.95;6.13;;;4.50;74.40;;;;;;5126038;27;20027;-71
2022/01/02 06:30:25;;;;;;;12.65;6.32;;;4.50;74.50;;;;;;5107624;27;20039;-71
2022/01/02 06:32:55;;;;;;;26.15;6.68;;;4.50;74.60;;;;;;5139341;27;20019;-71
2022/01/02 06:35:23;;;;;;;14.30;6.78;;;4.50;74.60;;;;;;5117686;27;20019;-71
2022/01/02 06:37:49;;;;;;;11.48;6.88;;;4.50;74.70;;;;;;5128235;27;20020;-71
2022/01/02 06:40:15;;;;;;;12.75;6.63;;;4.50;74.70;;;;;;5119405;27;20039;-71
2022/01/02 06:42:40;;;;;;;38.38;8.10;;;4.50;74.70;;;;;;5121700;27;20095;-71
2022/01/02 06:45:07;;;;;;;18.95;7.80;;;4.50;74.70;;;;;;5155729;27;20023;-71
2022/01/02 06:47:32;;;;;;;28.48;6.43;;;4.50;74.80;;;;;;5128778;27;20027;-71
2022/01/02 06:49:58;;;;;;;26.05;7.60;;;4.50;74.90;;;;;;5144591;27;20023;-71
2022/01/02 06:52:23;;;;;;;35.50;7.10;;;4.50;74.90;;;;;;5133815;27;20023;-70
2022/01/02 06:54:53;;;;;;;41.00;7.28;;;4.50;74.80;;;;;;5137549;27;20140;-71
2022/01/02 06:57:20;;;;;;;22.30;6.72;;;4.50;74.80;;;;;;5114655;27;20027;-71
2022/01/02 06:59:46;;;;;;;27.15;6.72;;;4.50;74.70;;;;;;5115722;27;20027;-71
2022/01/02 07:02:12;;;;;;;35.65;7.25;;;4.70;74.90;;;;;;5117656;27;20020;-71
2022/01/02 07:04:37;;;;;;;18.45;6.78;;;4.50;74.90;;;;;;5109281;27;20391;-71
2022/01/02 07:07:03;;;;;;;27.98;7.40;;;4.50;74.80;;;;;;5138489;27;20111;-71
2022/01/02 07:09:31;;;;;;;20.23;6.88;;;4.50;74.70;;;;;;5139681;27;20105;-71
2022/01/02 07:11:57;;;;;;;20.55;7.00;;;4.50;74.70;;;;;;5136026;27;20047;-71
2022/01/02 07:14:26;;;;;;;14.68;7.38;;;4.50;74.70;;;;;;5138015;27;20023;-71
2022/01/02 07:16:53;;;;;;;20.02;6.93;;;4.50;74.80;;;;;;5128753;27;20387;-71
2022/01/02 07:19:18;;;;;;;12.02;6.53;;;4.50;74.80;;;;;;5142488;27;20037;-71
2022/01/02 07:21:44;;;;;;;17.42;7.22;;;4.50;74.70;;;;;;5121110;27;20102;-71
2022/01/02 07:24:09;;;;;;;13.98;7.07;;;4.50;74.70;;;;;;5128334;27;20114;-71
2022/01/02 07:26:35;;;;;;;12.20;7.32;;;4.50;74.80;;;;;;5137916;27;20037;-71
2022/01/02 07:29:01;;;;;;;23.90;6.90;;;4.50;74.80;;;;;;5107453;27;20588;-70
2022/01/02 07:31:26;;;;;;;11.80;7.03;;;4.50;74.80;;;;;;5133133;27;20119;-71
2022/01/02 07:33:52;;;;;;;13.20;7.97;;;4.50;74.70;;;;;;5135909;27;20052;-71
2022/01/02 07:36:18;;;;;;;13.20;7.40;;;4.50;74.70;;;;;;5149079;27;20106;-71
2022/01/02 07:38:43;;;;;;;12.38;7.82;;;4.50;74.70;;;;;;5134648;27;20100;-71
2022/01/02 07:41:09;;;;;;;12.65;7.40;;;4.50;74.80;;;;;;5131802;27;20456;-71
2022/01/02 07:43:35;;;;;;;17.73;6.97;;;4.50;74.80;;;;;;5143344;27;20475;-71
2022/01/02 07:46:00;;;;;;;11.38;6.43;;;4.60;74.80;;;;;;5109681;27;20038;-71
2022/01/02 07:48:26;;;;;;;13.23;6.47;;;4.50;74.80;;;;;;5119426;27;20104;-71
2022/01/02 07:50:51;;;;;;;10.98;6.32;;;4.60;74.90;;;;;;5145080;27;20497;-71
2022/01/02 07:53:17;;;;;;;9.93;6.13;;;4.60;75.00;;;;;;5139706;27;20382;-70
2022/01/02 07:55:43;;;;;;;9.82;6.72;;;4.60;75.00;;;;;;5142047;27;20509;-71
2022/01/02 07:58:09;;;;;;;10.60;6.57;;;4.60;75.10;;;;;;5141214;27;20031;-71
2022/01/02 08:00:35;;;;;;;10.90;6.75;;;4.60;75.20;;;;;;5134994;27;20050;-71
2022/01/02 08:03:00;;;;;;;8.55;6.28;;;4.60;76.00;;;;;;5123934;27;20019;-71
2022/01/02 08:05:26;;;;;;;9.90;6.60;;;4.70;75.40;;;;;;5137298;27;20039;-71
2022/01/02 08:07:52;;;;;;;12.13;6.93;;;4.80;75.40;;;;;;5138913;27;20023;-71
2022/01/02 08:10:17;;;;;;;10.38;5.88;;;4.80;75.40;;;;;;5137949;27;20090;-70
2022/01/02 08:12:43;;;;;;;9.50;6.20;;;4.80;75.30;;;;;;5130236;27;20062;-70
2022/01/02 08:15:09;;;;;;;9.40;6.20;;;4.90;75.30;;;;;;5138483;27;20026;-70
2022/01/02 08:17:35;;;;;;;10.35;6.72;;;4.90;75.30;;;;;;5119564;27;20023;-71
2022/01/02 08:20:01;;;;;;;11.70;6.97;;;5.00;75.40;;;;;;5135988;27;20091;-70
2022/01/02 08:22:26;;;;;;;11.98;7.68;;;5.10;75.30;;;;;;5144880;27;20132;-70
2022/01/02 08:24:52;;;;;;;14.77;8.88;;;5.10;75.30;;;;;;5125333;27;20396;-70
2022/01/02 08:27:18;;;;;;;12.30;7.82;;;5.10;75.30;;;;;;5125773;27;20418;-70
2022/01/02 08:29:44;;;;;;;15.18;8.55;;;5.20;75.30;;;;;;5124784;27;20452;-70
2022/01/02 08:32:09;;;;;;;15.20;9.60;;;5.30;75.30;;;;;;5110463;27;20030;-71
2022/01/02 08:34:35;;;;;;;19.92;11.40;;;5.30;75.20;;;;;;5152358;27;20030;-71
2022/01/02 08:37:01;;;;;;;14.63;9.75;;;5.40;74.90;;;;;;5137728;27;20498;-70
2022/01/02 08:39:26;;;;;;;18.05;9.38;;;5.50;74.80;;;;;;5137846;27;20651;-70
2022/01/02 08:41:53;;;;;;;15.02;9.95;;;5.50;74.60;;;;;;5137858;27;20023;-71
2022/01/02 08:44:19;;;;;;;18.05;11.18;;;5.60;74.60;;;;;;5145833;27;20037;-71
2022/01/02 08:46:44;;;;;;;15.45;8.60;;;5.60;74.50;;;;;;5130720;27;20114;-70
2022/01/02 08:49:10;;;;;;;12.88;8.30;;;5.60;74.50;;;;;;5120252;27;20034;-70
2022/01/02 08:51:36;;;;;;;14.40;8.52;;;5.70;74.50;;;;;;5135311;27;20064;-71
2022/01/02 08:54:05;;;;;;;24.38;18.02;;;5.60;74.40;;;;;;5136109;27;20039;-71
2022/01/02 08:56:31;;;;;;;16.15;10.88;;;5.70;74.30;;;;;;5133817;27;20030;-71
2022/01/02 08:58:57;;;;;;;16.42;9.50;;;5.70;74.20;;;;;;5129307;27;20038;-70
2022/01/02 09:01:23;;;;;;;14.73;9.10;;;5.70;74.10;;;;;;5150309;27;20026;-71
2022/01/02 09:03:48;;;;;;;12.05;7.63;;;5.80;74.10;;;;;;5143065;27;20066;-71
2022/01/02 09:06:15;;;;;;;11.88;7.43;;;5.80;74.10;;;;;;5116573;27;20038;-71
2022/01/02 09:08:41;;;;;;;14.43;7.93;;;5.80;74.10;;;;;;5104948;27;20031;-71
2022/01/02 09:11:07;;;;;;;13.00;8.05;;;5.80;74.10;;;;;;5135620;27;20473;-71
2022/01/02 09:13:33;;;;;;;11.65;6.93;;;5.80;74.20;;;;;;5124822;27;20428;-71
2022/01/02 09:15:59;;;;;;;10.07;6.93;;;5.90;74.40;;;;;;5124959;27;20588;-71
2022/01/02 09:18:25;;;;;;;12.82;8.38;;;5.90;74.50;;;;;;5110627;27;20395;-71
2022/01/02 09:20:50;;;;;;;14.63;9.35;;;6.00;74.60;;;;;;5126721;27;20031;-71
2022/01/02 09:23:16;;;;;;;13.35;9.18;;;6.00;74.50;;;;;;5128442;28;20024;-71
2022/01/02 09:25:42;;;;;;;15.43;9.75;;;6.00;74.30;;;;;;5108836;28;20023;-71
2022/01/02 09:28:09;;;;;;;21.58;10.43;;;6.10;74.30;;;;;;5120710;27;20481;-71
2022/01/02 09:30:35;;;;;;;18.73;12.00;;;6.20;74.50;;;;;;5130506;27;20054;-71
2022/01/02 09:33:03;;;;;;;20.95;11.88;;;6.30;74.50;;;;;;5121517;27;20530;-71
2022/01/02 09:35:29;;;;;;;21.55;12.63;;;6.40;74.30;;;;;;5125293;28;20031;-72
2022/01/02 09:37:55;;;;;;;19.08;11.45;;;6.50;74.00;;;;;;5125599;27;20020;-71
2022/01/02 09:40:24;;;;;;;172.98;66.28;;;6.50;74.00;;;;;;5126463;27;20096;-71
2022/01/02 09:42:50;;;;;;;44.47;23.95;;;6.60;74.20;;;;;;5130576;27;20022;-71
2022/01/02 09:45:16;;;;;;;25.30;14.27;;;6.70;74.40;;;;;;5102954;27;20032;-71
2022/01/02 09:47:43;;;;;;;21.52;11.88;;;6.80;74.40;;;;;;5139935;27;20055;-72
2022/01/02 09:50:10;;;;;;;23.85;14.48;;;7.00;74.20;;;;;;5117243;28;20054;-71
2022/01/02 09:52:36;;;;;;;28.00;16.88;;;7.00;73.90;;;;;;5132710;27;20012;-72
2022/01/02 09:55:01;;;;;;;27.60;13.75;;;7.20;73.90;;;;;;5127830;28;20030;-71
2022/01/02 09:57:27;;;;;;;17.30;11.25;;;7.30;73.80;;;;;;5115863;27;20539;-71
2022/01/02 09:59:53;;;;;;;15.85;10.52;;;7.40;73.70;;;;;;5114119;28;20087;-71
2022/01/02 10:02:19;;;;;;;14.25;9.52;;;7.50;73.80;;;;;;5105060;28;20024;-71
2022/01/02 10:04:45;;;;;;;14.18;9.05;;;7.70;73.80;;;;;;5123640;27;20027;-71
2022/01/02 10:07:33;;;;;;;20.67;13.25;;;7.80;73.80;;;;;;5139014;27;20023;-73
2022/01/02 10:10:08;;;;;;;15.75;9.25;;;7.90;73.00;;;;;;5130790;27;20023;-73
2022/01/02 10:12:35;;;;;;;24.33;15.10;;;8.10;73.30;;;;;;5107430;28;20069;-73
2022/01/02 10:15:14;;;;;;;56.10;37.05;;;8.20;73.30;;;;;;5110889;28;20028;-72
2022/01/02 10:18:09;;;;;;;37.40;26.02;;;8.30;72.70;;;;;;5120336;27;20882;-72
2022/01/02 10:20:43;;;;;;;15.65;11.32;;;8.50;72.50;;;;;;5120829;27;20399;-73
2022/01/02 10:23:23;;;;;;;13.38;9.50;;;8.70;72.90;;;;;;5125275;27;20069;-73
2022/01/02 10:25:59;;;;;;;13.60;9.10;;;8.80;72.60;;;;;;5126460;27;20102;-73
2022/01/02 10:28:31;;;;;;;10.98;7.80;;;8.90;72.90;;;;;;5129393;27;20015;-73
2022/01/02 10:31:08;;;;;;;15.05;9.88;;;9.10;72.80;;;;;;5117004;27;20365;-73
2022/01/02 10:33:54;;;;;;;13.23;8.07;;;9.20;72.30;;;;;;5112039;28;20041;-73
2022/01/02 10:36:30;;;;;;;13.07;8.55;;;9.40;71.90;;;;;;5106411;27;20113;-73
2022/01/02 10:39:18;;;;;;;14.10;8.57;;;9.50;71.90;;;;;;5112135;27;20035;-73
2022/01/02 10:41:49;;;;;;;11.45;7.35;;;9.50;71.40;;;;;;5095501;28;20020;-73
2022/01/02 10:44:26;;;;;;;13.98;8.63;;;9.50;71.40;;;;;;5113856;27;20472;-74
2022/01/02 10:47:11;;;;;;;14.70;9.50;;;9.60;71.20;;;;;;5096742;28;20036;-73
2022/01/02 10:49:46;;;;;;;14.23;9.68;;;9.60;71.50;;;;;;5105803;27;20053;-73
2022/01/02 10:52:27;;;;;;;15.07;9.57;;;9.60;71.60;;;;;;5111949;27;20029;-73
2022/01/02 10:54:52;;;;;;;17.52;11.93;;;9.70;71.70;;;;;;5112325;27;20102;-73
2022/01/02 10:57:19;;;;;;;16.88;9.95;;;9.70;72.00;;;;;;5113009;27;20123;-73
2022/01/02 10:59:46;;;;;;;13.80;8.73;;;9.80;72.00;;;;;;5115916;27;20046;-73
2022/01/02 11:02:16;;;;;;;13.20;8.73;;;9.90;71.60;;;;;;5116391;27;20027;-73
2022/01/02 11:04:52;;;;;;;19.15;11.90;;;9.90;71.40;;;;;;5105600;27;20035;-73
2022/01/02 11:07:22;;;;;;;37.53;24.27;;;10.00;71.40;;;;;;5112315;27;20020;-74
2022/01/02 11:09:51;;;;;;;34.13;20.17;;;10.00;71.40;;;;;;5111854;27;20469;-74
2022/01/02 11:12:16;;;;;;;20.00;12.75;;;10.10;71.50;;;;;;5116051;27;20046;-74
2022/01/02 11:14:42;;;;;;;16.40;10.50;;;10.20;71.50;;;;;;5129816;27;20455;-73
2022/01/02 11:17:08;;;;;;;13.93;8.75;;;10.20;72.20;;;;;;5119390;27;20027;-73
2022/01/02 11:19:34;;;;;;;13.27;8.93;;;10.20;71.50;;;;;;5114690;27;20031;-73
2022/01/02 11:22:03;;;;;;;15.57;8.82;;;10.30;71.70;;;;;;5114114;27;20027;-74
2022/01/02 11:24:32;;;;;;;11.45;7.97;;;10.30;71.50;;;;;;5107939;27;20099;-73
2022/01/02 11:27:21;;;;;;;13.80;9.30;;;10.40;71.40;;;;;;5102636;27;20030;-73
2022/01/02 11:29:47;;;;;;;11.95;8.70;;;10.40;71.40;;;;;;5097454;27;20117;-73
2022/01/02 11:32:23;;;;;;;13.30;9.20;;;10.50;71.40;;;;;;5126403;27;20063;-74
2022/01/02 11:34:49;;;;;;;15.35;9.25;;;10.50;71.10;;;;;;5122049;27;20539;-73
2022/01/02 11:37:21;;;;;;;17.98;10.55;;;10.60;71.30;;;;;;5130032;27;20088;-74
2022/01/02 11:40:05;;;;;;;19.83;10.93;;;10.60;71.30;;;;;;5135258;27;20038;-74
2022/01/02 11:42:40;;;;;;;20.20;11.80;;;10.60;71.10;;;;;;5130589;27;20023;-74
2022/01/02 11:45:08;;;;;;;26.90;15.23;;;10.70;70.90;;;;;;5115044;27;20105;-74
2022/01/02 11:47:42;;;;;;;24.27;14.30;;;10.80;71.00;;;;;;5141730;27;20096;-74
2022/01/02 11:50:34;;;;;;;19.20;12.38;;;10.80;70.90;;;;;;5110454;28;20056;-74
2022/01/02 11:53:09;;;;;;;23.90;14.65;;;10.80;70.60;;;;;;5136054;27;20083;-74
2022/01/02 11:55:35;;;;;;;31.33;17.55;;;10.90;70.70;;;;;;5125899;27;20027;-73
2022/01/02 11:58:02;;;;;;;32.83;17.45;;;10.90;70.90;;;;;;5130855;27;20394;-73
2022/01/02 12:00:41;;;;;;;32.42;19.10;;;10.90;70.90;;;;;;5115468;27;20042;-73
2022/01/02 12:03:42;;;;;;;62.17;35.40;;;10.90;70.80;;;;;;5128524;27;20031;-73
2022/01/02 12:06:19;;;;;;;36.45;20.38;;;10.90;70.80;;;;;;5130593;27;20023;-73
2022/01/02 12:08:46;;;;;;;28.13;17.45;;;10.90;70.80;;;;;;5125603;27;20023;-73
2022/01/02 12:11:49;;;;;;;28.45;15.98;;;10.90;70.90;;;;;;5134042;27;20071;-74
2022/01/02 12:14:20;;;;;;;28.63;16.33;;;10.90;70.90;;;;;;5044451;28;20531;-73
2022/01/02 12:17:00;;;;;;;27.67;15.75;;;10.90;71.20;;;;;;5118240;27;20391;-74
2022/01/02 12:19:27;;;;;;;24.75;14.32;;;11.00;71.40;;;;;;5116548;27;20042;-74
2022/01/02 12:22:09;;;;;;;23.23;13.75;;;11.00;71.40;;;;;;5134723;27;20094;-73
2022/01/02 12:24:35;;;;;;;20.25;12.85;;;11.00;71.20;;;;;;5144938;27;20022;-74
2022/01/02 12:27:08;;;;;;;24.65;11.35;;;11.10;71.40;;;;;;5115996;27;20356;-74
2022/01/02 12:29:34;;;;;;;19.08;11.30;;;11.10;71.50;;;;;;5136238;27;20068;-74
2022/01/02 12:32:01;;;;;;;18.13;10.93;;;11.10;71.50;;;;;;5099329;27;20031;-73
2022/01/02 12:34:30;;;;;;;17.85;11.35;;;11.20;71.60;;;;;;5123295;27;20027;-74
2022/01/02 12:36:56;;;;;;;17.75;11.02;;;11.20;71.70;;;;;;5113225;27;20102;-73
2022/01/02 12:39:27;;;;;;;18.08;11.27;;;11.20;71.70;;;;;;5131935;27;20118;-73
2022/01/02 12:41:53;;;;;;;13.48;9.30;;;11.20;71.70;;;;;;5110806;27;20023;-73
2022/01/02 12:44:31;;;;;;;10.50;6.60;;;11.20;71.60;;;;;;5101867;28;20080;-73
2022/01/02 12:47:00;;;;;;;9.82;6.53;;;11.30;70.90;;;;;;5128199;27;20035;-73
2022/01/02 12:49:33;;;;;;;7.78;5.10;;;11.30;70.80;;;;;;5127516;27;20035;-72
2022/01/02 12:52:10;;;;;;;7.90;5.40;;;11.30;70.30;;;;;;5129764;27;20048;-73
2022/01/02 12:54:45;;;;;;;8.93;5.40;;;11.40;70.30;;;;;;5132898;27;20031;-72
2022/01/02 12:57:13;;;;;;;13.13;7.95;;;11.40;70.60;;;;;;5110305;27;20471;-72